createdAt,value
2018-02-10T00:00:37.117Z,49.47
2018-02-10T00:03:04.683Z,57.57
2018-02-10T00:05:32.291Z,41.63
2018-02-10T00:07:59.856Z,49.53
2018-02-10T00:10:27.577Z,46.93
2018-02-10T00:12:55.181Z,49.73
2018-02-10T00:15:22.750Z,51.23
2018-02-10T00:17:50.323Z,52.60
2018-02-10T00:20:17.908Z,44.87
2018-02-10T00:22:48.408Z,88.03
2018-02-10T00:25:15.968Z,37.93
2018-02-10T00:27:43.565Z,51.77
2018-02-10T00:30:11.132Z,42.53
2018-02-10T00:32:38.699Z,56.47
2018-02-10T00:35:06.291Z,43.70
2018-02-10T00:37:33.838Z,52.27
2018-02-10T00:40:01.399Z,49.27
2018-02-10T00:42:29.095Z,57.73
2018-02-10T00:44:56.655Z,52.50
2018-02-10T00:47:24.238Z,49.53
2018-02-10T00:49:51.856Z,50.80
2018-02-10T00:52:19.424Z,65.37
2018-02-10T00:54:47.160Z,59.00
2018-02-10T00:57:14.763Z,63.00
2018-02-10T00:59:42.457Z,60.23
2018-02-10T01:02:10.044Z,55.00
2018-02-10T01:04:37.651Z,53.13
2018-02-10T01:07:05.211Z,61.03
2018-02-10T01:09:32.776Z,54.73
2018-02-10T01:12:00.389Z,69.37
2018-02-10T01:14:27.970Z,60.93
2018-02-10T01:16:55.539Z,55.37
2018-02-10T01:19:23.141Z,56.13
2018-02-10T01:21:50.728Z,57.03
2018-02-10T01:24:18.295Z,58.17
2018-02-10T01:26:46.120Z,62.27
2018-02-10T01:29:13.685Z,56.87
2018-02-10T01:31:41.436Z,61.40
2018-02-10T01:34:09.055Z,55.27
2018-02-10T01:36:36.766Z,62.87
2018-02-10T01:39:04.397Z,62.27
2018-02-10T01:41:32.002Z,49.57
2018-02-10T01:43:59.574Z,56.10
2018-02-10T01:46:27.228Z,56.20
2018-02-10T01:48:54.835Z,66.40
2018-02-10T01:51:22.413Z,60.37
2018-02-10T01:53:49.992Z,61.40
2018-02-10T01:56:17.605Z,57.67
2018-02-10T01:58:45.171Z,61.67
2018-02-10T02:01:12.976Z,67.60
2018-02-10T02:03:40.576Z,73.80
2018-02-10T02:06:08.147Z,76.13
2018-02-10T02:08:35.708Z,77.83
2018-02-10T02:11:03.329Z,71.40
2018-02-10T02:13:31.085Z,72.57
2018-02-10T02:15:58.661Z,72.60
2018-02-10T02:18:32.347Z,65.17
2018-02-10T02:20:59.909Z,68.37
2018-02-10T02:23:27.689Z,62.10
2018-02-10T02:25:55.277Z,59.50
2018-02-10T02:28:22.993Z,51.03
2018-02-10T02:30:50.559Z,55.60
2018-02-10T02:33:18.329Z,54.33
2018-02-10T02:35:45.905Z,54.40
2018-02-10T02:38:13.468Z,52.67
2018-02-10T02:40:41.084Z,53.70
2018-02-10T02:43:08.781Z,57.70
2018-02-10T02:45:36.429Z,58.97
2018-02-10T02:48:04.275Z,70.63
2018-02-10T02:50:31.844Z,54.50
2018-02-10T02:52:59.411Z,59.00
2018-02-10T02:55:27.087Z,65.07
2018-02-10T02:57:54.741Z,57.80
2018-02-10T03:00:22.398Z,71.47
2018-02-10T03:02:50.079Z,71.33
2018-02-10T03:05:17.641Z,64.73
2018-02-10T03:07:45.203Z,56.33
2018-02-10T03:10:12.790Z,70.67
2018-02-10T03:12:40.516Z,64.97
2018-02-10T03:15:08.185Z,68.47
2018-02-10T03:17:35.792Z,61.73
2018-02-10T03:20:03.361Z,69.33
2018-02-10T03:22:30.922Z,55.73
2018-02-10T03:24:58.519Z,59.83
2018-02-10T03:27:26.085Z,66.10
2018-02-10T03:29:53.633Z,71.93
2018-02-10T03:32:21.401Z,77.03
2018-02-10T03:34:49.060Z,88.33
2018-02-10T03:37:16.617Z,70.83
2018-02-10T03:39:44.383Z,63.20
2018-02-10T03:42:12.012Z,70.10
2018-02-10T03:44:39.621Z,64.50
2018-02-10T03:47:07.236Z,62.83
2018-02-10T03:49:34.810Z,70.78
2018-02-10T03:52:02.407Z,79.77
2018-02-10T03:54:30.008Z,61.07
2018-02-10T03:56:57.594Z,61.30
2018-02-10T03:59:25.171Z,56.80
2018-02-10T04:01:52.931Z,58.73
2018-02-10T04:04:20.610Z,63.10
2018-02-10T04:06:48.183Z,58.23
2018-02-10T04:09:15.777Z,58.67
2018-02-10T04:11:43.354Z,67.67
2018-02-10T04:14:11.040Z,57.13
2018-02-10T04:16:38.650Z,71.37
2018-02-10T04:19:06.212Z,72.83
2018-02-10T04:21:33.873Z,67.33
2018-02-10T04:24:01.500Z,57.73
2018-02-10T04:26:29.113Z,61.80
2018-02-10T04:28:56.830Z,63.43
2018-02-10T04:31:24.427Z,64.27
2018-02-10T04:33:52.007Z,58.80
2018-02-10T04:36:19.593Z,69.53
2018-02-10T04:38:47.190Z,56.73
2018-02-10T04:41:14.765Z,61.13
2018-02-10T04:43:42.335Z,58.63
2018-02-10T04:46:10.034Z,56.67
2018-02-10T04:48:37.918Z,55.50
2018-02-10T04:51:05.573Z,49.53
2018-02-10T04:53:33.180Z,58.33
2018-02-10T04:56:00.846Z,64.73
2018-02-10T04:58:28.426Z,71.77
2018-02-10T05:00:56.067Z,67.47
2018-02-10T05:03:24.024Z,69.97
2018-02-10T05:05:51.800Z,59.07
2018-02-10T05:08:19.617Z,66.23
2018-02-10T05:10:47.234Z,48.47
2018-02-10T05:13:14.793Z,47.40
2018-02-10T05:15:42.358Z,54.87
2018-02-10T05:18:09.937Z,54.23
2018-02-10T05:20:37.502Z,51.40
2018-02-10T05:23:05.117Z,55.13
2018-02-10T05:25:32.704Z,50.67
2018-02-10T05:28:00.343Z,55.90
2018-02-10T05:30:27.955Z,51.40
2018-02-10T05:32:55.502Z,56.70
2018-02-10T05:35:23.402Z,64.90
2018-02-10T05:37:50.996Z,52.47
2018-02-10T05:40:18.566Z,49.40
2018-02-10T05:42:46.277Z,50.83
2018-02-10T05:45:13.889Z,60.97
2018-02-10T05:47:41.441Z,49.40
2018-02-10T05:50:09.008Z,53.70
2018-02-10T05:52:36.712Z,59.47
2018-02-10T05:55:04.292Z,59.70
2018-02-10T05:57:31.871Z,57.57
2018-02-10T05:59:59.463Z,48.97
2018-02-10T06:02:27.073Z,54.27
2018-02-10T06:04:54.643Z,49.77
2018-02-10T06:07:22.480Z,61.13
2018-02-10T06:09:50.047Z,51.00
2018-02-10T06:12:17.612Z,48.50
2018-02-10T06:14:45.228Z,44.87
2018-02-10T06:17:12.929Z,63.13
2018-02-10T06:19:40.593Z,53.70
2018-02-10T06:22:08.186Z,58.83
2018-02-10T06:24:35.790Z,57.93
2018-02-10T06:27:03.338Z,49.73
2018-02-10T06:29:30.967Z,51.60
2018-02-10T06:31:58.532Z,48.63
2018-02-10T06:34:26.222Z,51.20
2018-02-10T06:36:53.909Z,79.97
2018-02-10T06:39:21.481Z,66.67
2018-02-10T06:41:49.155Z,52.67
2018-02-10T06:44:16.803Z,41.43
2018-02-10T06:46:44.383Z,65.00
2018-02-10T06:49:11.956Z,43.90
2018-02-10T06:51:39.567Z,39.83
2018-02-10T06:54:07.257Z,71.63
2018-02-10T06:56:34.833Z,48.83
2018-02-10T06:59:02.584Z,49.10
2018-02-10T07:01:30.166Z,43.77
2018-02-10T07:03:57.753Z,35.70
2018-02-10T07:06:25.377Z,32.53
2018-02-10T07:08:53.031Z,36.53
2018-02-10T07:11:20.695Z,35.47
2018-02-10T07:13:48.356Z,31.43
2018-02-10T07:16:16.013Z,30.53
2018-02-10T07:18:43.670Z,33.87
2018-02-10T07:21:11.306Z,34.67
2018-02-10T07:23:38.871Z,36.93
2018-02-10T07:26:06.443Z,45.63
2018-02-10T07:28:34.067Z,75.77
2018-02-10T07:31:01.649Z,92.23
2018-02-10T07:33:29.219Z,51.10
2018-02-10T07:35:56.831Z,55.40
2018-02-10T07:38:24.396Z,41.53
2018-02-10T07:40:51.962Z,40.13
2018-02-10T07:43:19.671Z,42.00
2018-02-10T07:45:47.244Z,50.90
2018-02-10T07:48:14.828Z,53.27
2018-02-10T07:50:43.476Z,44.13
2018-02-10T07:53:11.158Z,44.60
2018-02-10T07:55:39.131Z,43.43
2018-02-10T07:58:06.842Z,49.90
2018-02-10T08:00:34.787Z,49.53
2018-02-10T08:03:02.396Z,52.63
2018-02-10T08:05:30.033Z,55.03
2018-02-10T08:07:57.617Z,53.77
2018-02-10T08:10:25.201Z,50.43
2018-02-10T08:12:52.806Z,47.80
2018-02-10T08:15:20.383Z,48.30
2018-02-10T08:17:48.246Z,54.00
2018-02-10T08:20:15.852Z,48.60
2018-02-10T08:22:43.467Z,41.10
2018-02-10T08:25:11.175Z,41.50
2018-02-10T08:27:38.787Z,57.90
2018-02-10T08:30:06.366Z,56.23
2018-02-10T08:32:33.944Z,90.00
2018-02-10T08:35:01.811Z,52.97
2018-02-10T08:37:29.405Z,51.30
2018-02-10T08:39:56.992Z,39.80
2018-02-10T08:42:24.602Z,42.50
2018-02-10T08:44:52.204Z,34.47
2018-02-10T08:47:19.994Z,30.03
2018-02-10T08:49:47.737Z,38.80
2018-02-10T08:52:15.319Z,47.47
2018-02-10T08:54:43.195Z,48.27
2018-02-10T08:57:10.850Z,37.40
2018-02-10T08:59:38.621Z,35.47
2018-02-10T09:02:06.303Z,33.70
2018-02-10T09:04:33.912Z,35.37
2018-02-10T09:07:01.781Z,30.65
2018-02-10T09:09:29.701Z,34.45
2018-02-10T09:11:57.409Z,34.53
2018-02-10T09:14:24.991Z,31.57
2018-02-10T09:16:52.576Z,43.00
2018-02-10T09:19:20.204Z,47.50
2018-02-10T09:21:47.800Z,49.83
2018-02-10T09:24:15.478Z,48.40
2018-02-10T09:26:43.133Z,53.50
2018-02-10T09:29:10.727Z,47.10
2018-02-10T09:31:38.312Z,68.07
2018-02-10T09:34:05.936Z,53.70
2018-02-10T09:36:33.523Z,67.00
2018-02-10T09:39:01.107Z,64.63
2018-02-10T09:41:28.905Z,52.30
2018-02-10T09:43:58.178Z,59.80
2018-02-10T09:46:26.148Z,64.33
2018-02-10T09:48:53.754Z,72.70
2018-02-10T09:51:21.505Z,63.47
2018-02-10T09:53:49.348Z,71.30
2018-02-10T09:56:17.025Z,75.37
2018-02-10T09:58:44.701Z,50.10
2018-02-10T10:01:12.278Z,63.47
2018-02-10T10:03:39.892Z,52.80
2018-02-10T10:06:07.462Z,67.87
2018-02-10T10:08:35.042Z,44.90
2018-02-10T10:11:02.804Z,268.60
2018-02-10T10:13:30.371Z,44.10
2018-02-10T10:15:57.939Z,68.00
2018-02-10T10:18:25.577Z,44.23
2018-02-10T10:20:53.358Z,74.13
2018-02-10T10:23:20.975Z,113.43
2018-02-10T10:25:49.380Z,55.67
2018-02-10T10:28:17.046Z,45.83
2018-02-10T10:30:44.646Z,39.07
2018-02-10T10:33:12.295Z,43.70
2018-02-10T10:35:39.862Z,137.43
2018-02-10T10:38:07.489Z,49.47
2018-02-10T10:40:35.112Z,56.23
2018-02-10T10:43:03.030Z,43.87
2018-02-10T10:45:30.595Z,49.77
2018-02-10T10:47:58.635Z,41.80
2018-02-10T10:50:26.426Z,48.90
2018-02-10T10:52:54.003Z,59.53
2018-02-10T10:55:21.591Z,42.70
2018-02-10T10:57:49.220Z,66.67
2018-02-10T11:00:18.711Z,33.43
2018-02-10T11:02:46.308Z,36.57
2018-02-10T11:05:14.017Z,43.77
2018-02-10T11:07:41.904Z,36.10
2018-02-10T11:10:09.496Z,48.53
2018-02-10T11:12:37.125Z,41.27
2018-02-10T11:15:04.712Z,34.97
2018-02-10T11:17:32.299Z,41.83
2018-02-10T11:20:00.085Z,76.37
2018-02-10T11:22:27.667Z,71.43
2018-02-10T11:24:55.239Z,45.13
2018-02-10T11:27:22.856Z,38.10
2018-02-10T11:29:50.423Z,41.50
2018-02-10T11:32:17.999Z,40.63
2018-02-10T11:34:45.652Z,39.77
2018-02-10T11:37:13.331Z,50.90
2018-02-10T11:39:41.003Z,49.93
2018-02-10T11:42:08.626Z,38.73
2018-02-10T11:44:36.322Z,45.37
2018-02-10T11:47:03.986Z,40.83
2018-02-10T11:49:31.586Z,45.73
2018-02-10T11:51:59.302Z,41.70
2018-02-10T11:54:26.891Z,47.40
2018-02-10T11:56:54.585Z,42.63
2018-02-10T11:59:22.224Z,42.47
2018-02-10T12:01:49.834Z,44.60
2018-02-10T12:04:17.430Z,42.77
2018-02-10T12:06:45.138Z,42.90
2018-02-10T12:09:12.688Z,41.40
2018-02-10T12:11:40.406Z,39.93
2018-02-10T12:14:08.056Z,41.10
2018-02-10T12:16:35.633Z,41.73
2018-02-10T12:19:03.267Z,39.17
2018-02-10T12:21:30.844Z,46.67
2018-02-10T12:23:58.434Z,39.90
2018-02-10T12:26:26.048Z,37.33
2018-02-10T12:28:54.094Z,41.60
2018-02-10T12:31:21.691Z,68.30
2018-02-10T12:33:49.356Z,57.03
2018-02-10T12:36:17.031Z,77.70
2018-02-10T12:38:44.670Z,65.90
2018-02-10T12:41:12.275Z,50.90
2018-02-10T12:43:39.832Z,44.53
2018-02-10T12:46:07.658Z,43.13
2018-02-10T12:48:40.887Z,42.40
2018-02-10T12:51:08.526Z,54.50
2018-02-10T12:53:36.129Z,42.90
2018-02-10T12:56:03.751Z,36.80
2018-02-10T12:58:31.358Z,34.97
2018-02-10T13:00:59.999Z,35.63
2018-02-10T13:03:27.676Z,50.03
2018-02-10T13:05:55.337Z,58.77
2018-02-10T13:08:22.937Z,43.63
2018-02-10T13:10:50.544Z,52.03
2018-02-10T13:13:18.152Z,91.70
2018-02-10T13:15:45.713Z,76.13
2018-02-10T13:18:13.788Z,59.77
2018-02-10T13:20:41.378Z,62.47
2018-02-10T13:23:09.152Z,117.83
2018-02-10T13:25:36.745Z,48.10
2018-02-10T13:28:04.345Z,44.53
2018-02-10T13:30:31.938Z,45.70
2018-02-10T13:32:59.511Z,52.93
2018-02-10T13:35:27.105Z,53.30
2018-02-10T13:37:54.688Z,55.57
2018-02-10T13:40:22.386Z,41.87
2018-02-10T13:42:49.946Z,54.63
2018-02-10T13:45:17.717Z,55.63
2018-02-10T13:47:45.375Z,57.90
2018-02-10T13:50:12.935Z,51.03
2018-02-10T13:52:40.502Z,59.47
2018-02-10T13:55:08.112Z,61.10
2018-02-10T13:57:35.684Z,72.27
2018-02-10T14:00:03.242Z,88.57
2018-02-10T14:02:30.838Z,84.00
2018-02-10T14:04:59.273Z,118.77
2018-02-10T14:07:26.826Z,249.53
2018-02-10T14:09:54.459Z,104.47
2018-02-10T14:12:22.035Z,95.40
2018-02-10T14:14:49.661Z,157.17
2018-02-10T14:17:17.245Z,113.57
2018-02-10T14:19:44.797Z,97.20
2018-02-10T14:22:12.338Z,217.47
2018-02-10T14:24:39.913Z,140.03
2018-02-10T14:27:07.475Z,164.23
2018-02-10T14:29:35.028Z,111.37
2018-02-10T14:32:02.619Z,86.30
2018-02-10T14:34:30.194Z,78.30
2018-02-10T14:36:57.756Z,87.50
2018-02-10T14:39:25.473Z,96.47
2018-02-10T14:41:53.046Z,165.23
2018-02-10T14:44:20.790Z,85.50
2018-02-10T14:46:48.385Z,88.20
2018-02-10T14:49:15.952Z,142.80
2018-02-10T14:51:43.514Z,142.43
2018-02-10T14:54:11.116Z,114.00
2018-02-10T14:56:38.698Z,210.40
2018-02-10T14:59:06.339Z,141.67
2018-02-10T15:01:33.939Z,112.30
2018-02-10T15:04:01.489Z,109.90
2018-02-10T15:06:29.069Z,146.40
2018-02-10T15:08:56.695Z,108.30
2018-02-10T15:11:24.284Z,127.95
2018-02-10T15:13:51.847Z,124.33
2018-02-10T15:16:19.464Z,138.80
2018-02-10T15:18:47.026Z,138.97
2018-02-10T15:21:14.583Z,123.27
2018-02-10T15:23:42.176Z,142.93
2018-02-10T15:26:09.771Z,146.63
2018-02-10T15:28:37.325Z,154.13
2018-02-10T15:31:16.823Z,144.90
2018-02-10T15:33:56.156Z,259.73
2018-02-10T15:36:23.802Z,153.37
2018-02-10T15:38:51.387Z,145.20
2018-02-10T15:41:18.967Z,152.27
2018-02-10T15:43:46.601Z,145.47
2018-02-10T15:46:14.178Z,146.03
2018-02-10T15:48:41.926Z,147.90
2018-02-10T15:51:09.542Z,117.03
2018-02-10T15:53:37.110Z,175.53
2018-02-10T15:56:04.913Z,270.87
2018-02-10T15:58:32.502Z,247.83
2018-02-10T16:01:00.217Z,187.27
2018-02-10T16:03:27.804Z,197.60
2018-02-10T16:05:55.560Z,168.50
2018-02-10T16:08:23.138Z,180.67
2018-02-10T16:10:50.699Z,180.67
2018-02-10T16:13:18.297Z,165.67
2018-02-10T16:15:45.871Z,165.00
2018-02-10T16:18:13.449Z,167.23
2018-02-10T16:20:41.056Z,181.40
2018-02-10T16:23:08.627Z,165.63
2018-02-10T16:25:36.456Z,186.93
2018-02-10T16:28:04.069Z,195.87
2018-02-10T16:30:31.776Z,185.13
2018-02-10T16:32:59.375Z,164.80
2018-02-10T16:35:27.094Z,177.77
2018-02-10T16:37:54.673Z,174.20
2018-02-10T16:40:22.415Z,192.30
2018-02-10T16:42:50.024Z,166.43
2018-02-10T16:45:17.603Z,149.67
2018-02-10T16:47:45.163Z,262.73
2018-02-10T16:50:12.765Z,181.33
2018-02-10T16:52:40.329Z,174.97
2018-02-10T16:55:07.889Z,176.70
2018-02-10T16:57:35.504Z,170.53
2018-02-10T17:00:03.105Z,182.87
2018-02-10T17:02:30.966Z,196.97
2018-02-10T17:04:58.597Z,177.53
2018-02-10T17:07:26.167Z,198.33
2018-02-10T17:09:53.749Z,180.87
2018-02-10T17:12:21.353Z,154.30
2018-02-10T17:14:48.919Z,157.40
2018-02-10T17:17:16.476Z,160.77
2018-02-10T17:19:44.176Z,159.77
2018-02-10T17:22:11.865Z,152.87
2018-02-10T17:24:39.431Z,164.43
2018-02-10T17:27:07.045Z,183.70
2018-02-10T17:29:34.640Z,176.60
2018-02-10T17:32:02.231Z,166.57
2018-02-10T17:34:29.837Z,181.20
2018-02-10T17:36:57.424Z,156.60
2018-02-10T17:39:25.039Z,166.27
2018-02-10T17:41:52.661Z,190.97
2018-02-10T17:44:20.238Z,215.47
2018-02-10T17:46:47.865Z,193.80
2018-02-10T17:49:15.476Z,168.73
2018-02-10T17:51:43.059Z,172.33
2018-02-10T17:54:10.619Z,162.90
2018-02-10T17:56:38.240Z,149.10
2018-02-10T17:59:05.837Z,140.63
2018-02-10T18:01:33.417Z,216.07
2018-02-10T18:04:01.046Z,172.03
2018-02-10T18:06:28.762Z,144.30
2018-02-10T18:08:56.394Z,123.90
2018-02-10T18:11:24.010Z,75.17
2018-02-10T18:13:51.749Z,61.30
2018-02-10T18:16:19.457Z,49.40
2018-02-10T18:18:47.052Z,31.10
2018-02-10T18:21:14.627Z,33.17
2018-02-10T18:23:42.203Z,28.33
2018-02-10T18:26:09.818Z,29.33
2018-02-10T18:28:37.397Z,22.30
2018-02-10T18:31:04.977Z,25.60
2018-02-10T18:33:33.127Z,31.17
2018-02-10T18:36:00.707Z,29.10
2018-02-10T18:38:28.273Z,19.60
2018-02-10T18:40:56.012Z,18.00
2018-02-10T18:43:23.577Z,21.73
2018-02-10T18:45:51.340Z,20.53
2018-02-10T18:48:19.018Z,27.93
2018-02-10T18:50:46.667Z,22.30
2018-02-10T18:53:14.245Z,26.03
2018-02-10T18:55:41.834Z,15.13
2018-02-10T18:58:09.412Z,16.83
2018-02-10T19:00:36.986Z,20.30
2018-02-10T19:03:04.610Z,19.87
2018-02-10T19:05:32.176Z,18.37
2018-02-10T19:07:59.735Z,13.37
2018-02-10T19:10:27.421Z,12.67
2018-02-10T19:12:54.983Z,18.33
2018-02-10T19:15:22.545Z,16.17
2018-02-10T19:17:50.140Z,17.23
2018-02-10T19:20:17.712Z,19.67
2018-02-10T19:22:45.257Z,17.47
2018-02-10T19:25:12.881Z,21.40
2018-02-10T19:27:40.595Z,19.87
2018-02-10T19:30:08.190Z,18.33
2018-02-10T19:32:35.818Z,24.93
2018-02-10T19:35:03.410Z,15.00
2018-02-10T19:37:30.972Z,24.52
2018-02-10T19:39:58.566Z,28.87
2018-02-10T19:42:26.119Z,20.20
2018-02-10T19:44:53.768Z,21.13
2018-02-10T19:47:21.345Z,25.97
2018-02-10T19:49:48.910Z,21.50
2018-02-10T19:52:16.500Z,25.87
2018-02-10T19:54:44.099Z,24.80
2018-02-10T19:57:11.738Z,21.37
2018-02-10T19:59:39.308Z,24.87
2018-02-10T20:02:06.939Z,35.33
2018-02-10T20:04:34.561Z,24.43
2018-02-10T20:07:02.138Z,37.80
2018-02-10T20:09:29.753Z,27.73
2018-02-10T20:11:57.337Z,24.17
2018-02-10T20:14:24.948Z,23.23
2018-02-10T20:16:52.546Z,33.60
2018-02-10T20:19:21.124Z,26.10
2018-02-10T20:21:48.788Z,25.53
2018-02-10T20:24:16.373Z,24.20
2018-02-10T20:26:43.973Z,17.40
2018-02-10T20:29:11.528Z,27.07
2018-02-10T20:31:40.040Z,21.70
2018-02-10T20:34:07.696Z,29.33
2018-02-10T20:36:35.266Z,28.47
2018-02-10T20:39:02.891Z,28.07
2018-02-10T20:41:30.447Z,44.73
2018-02-10T20:43:58.007Z,29.30
2018-02-10T20:46:25.643Z,25.63
2018-02-10T20:48:53.205Z,27.17
2018-02-10T20:51:20.755Z,32.83
2018-02-10T20:53:48.356Z,31.47
2018-02-10T20:56:16.049Z,45.63
2018-02-10T20:58:43.606Z,33.00
2018-02-10T21:01:11.208Z,30.67
2018-02-10T21:03:38.755Z,30.23
2018-02-10T21:06:06.320Z,32.50
2018-02-10T21:08:33.924Z,33.23
2018-02-10T21:11:01.489Z,37.03
2018-02-10T21:13:29.051Z,36.90
2018-02-10T21:15:56.655Z,36.27
2018-02-10T21:18:24.292Z,32.63
2018-02-10T21:20:51.855Z,33.10
2018-02-10T21:23:19.461Z,40.17
2018-02-10T21:25:47.678Z,38.70
2018-02-10T21:28:15.283Z,34.70
2018-02-10T21:30:42.837Z,36.22
2018-02-10T21:33:16.302Z,38.33
2018-02-10T21:35:43.859Z,38.13
2018-02-10T21:38:11.404Z,42.93
2018-02-10T21:40:38.999Z,41.13
2018-02-10T21:43:06.563Z,39.67
2018-02-10T21:45:34.155Z,37.07
2018-02-10T21:48:01.743Z,42.17
2018-02-10T21:50:29.324Z,34.23
2018-02-10T21:52:56.884Z,28.73
2018-02-10T21:55:24.493Z,39.90
2018-02-10T21:57:52.058Z,45.47
2018-02-10T22:00:19.645Z,41.80
2018-02-10T22:02:47.248Z,28.27
2018-02-10T22:05:14.807Z,39.30
2018-02-10T22:07:42.357Z,43.50
2018-02-10T22:10:09.932Z,27.70
2018-02-10T22:12:37.499Z,38.63
2018-02-10T22:15:05.110Z,39.57
2018-02-10T22:17:32.720Z,48.40
2018-02-10T22:20:00.297Z,39.47
2018-02-10T22:22:27.869Z,36.00
2018-02-10T22:24:55.456Z,41.33
2018-02-10T22:27:23.024Z,42.90
2018-02-10T22:29:50.583Z,37.97
2018-02-10T22:32:18.185Z,34.77
2018-02-10T22:34:45.772Z,39.60
2018-02-10T22:37:13.329Z,52.10
2018-02-10T22:39:40.931Z,38.47
2018-02-10T22:42:08.511Z,27.27
2018-02-10T22:44:36.073Z,30.53
2018-02-10T22:47:03.680Z,30.43
2018-02-10T22:49:31.245Z,28.90
2018-02-10T22:51:58.802Z,22.23
2018-02-10T22:54:26.411Z,27.37
2018-02-10T22:56:53.974Z,33.57
2018-02-10T22:59:21.526Z,42.13
2018-02-10T23:01:49.133Z,33.00
2018-02-10T23:04:16.712Z,20.50
2018-02-10T23:06:44.277Z,29.70
2018-02-10T23:09:11.881Z,34.63
2018-02-10T23:11:39.456Z,29.47
2018-02-10T23:14:07.026Z,31.60
2018-02-10T23:16:34.625Z,27.40
2018-02-10T23:19:02.202Z,28.33
2018-02-10T23:21:29.754Z,29.30
2018-02-10T23:23:57.438Z,27.33
2018-02-10T23:26:25.038Z,28.57
2018-02-10T23:28:52.605Z,28.53
2018-02-10T23:31:20.226Z,23.40
2018-02-10T23:33:47.779Z,22.10
2018-02-10T23:36:15.331Z,24.03
2018-02-10T23:38:42.928Z,28.13
2018-02-10T23:41:10.483Z,31.17
2018-02-10T23:43:38.030Z,25.03
2018-02-10T23:46:05.619Z,27.20
2018-02-10T23:48:33.154Z,27.73
2018-02-10T23:51:00.720Z,26.73
2018-02-10T23:53:28.423Z,41.63
2018-02-10T23:55:55.988Z,25.13
2018-02-10T23:58:23.547Z,33.13
